Terminal Aerodrome Forecast
Issued by NWS

Home | Current Version | Previous Version | Text Only | Print | Product List | Glossary On
Versions: 1 2 3 4 5 6 7 8 9 10 11 12 13
000
FTUS43 KBIS 061700
TAFJMS
TAF
KJMS 061735Z 0618/0718 29009KT P6SM BKN090
     FM062000 23011KT P6SM OVC090
     FM070100 28015G25KT P6SM OVC080
     FM070600 30015G25KT P6SM OVC020
     FM071200 31012KT P6SM OVC050=

USA.gov is the U.S. government's official web portal to all federal, state and local government web resources and services.